sensor_id;sensor_type;location;lat;lon;timestamp;temperature;humidity
63094;DHT22;49183;51.380;0.098;2023-04-15T10:25:47;13.00;75.40
63094;DHT22;49183;51.380;0.098;2023-04-15T10:28:21;13.10;74.70
63094;DHT22;49183;51.380;0.098;2023-04-15T10:31:14;13.10;74.10
63094;DHT22;49183;51.380;0.098;2023-04-15T10:33:50;13.10;74.30
63094;DHT22;49183;51.380;0.098;2023-04-15T10:36:24;13.10;74.20
63094;DHT22;49183;51.380;0.098;2023-04-15T10:38:57;13.20;74.30
63094;DHT22;49183;51.380;0.098;2023-04-15T10:41:30;13.30;73.80
63094;DHT22;49183;51.380;0.098;2023-04-15T10:44:03;13.40;73.60
63094;DHT22;49183;51.380;0.098;2023-04-15T10:49:14;13.40;71.60
63094;DHT22;49183;51.380;0.098;2023-04-15T10:51:45;13.30;72.00
63094;DHT22;49183;51.380;0.098;2023-04-15T10:54:15;13.20;72.00
63094;DHT22;49183;51.380;0.098;2023-04-15T10:56:44;13.20;72.30
63094;DHT22;49183;51.380;0.098;2023-04-15T10:59:12;13.20;72.50
63094;DHT22;49183;51.380;0.098;2023-04-15T11:01:54;13.30;72.50
63094;DHT22;49183;51.380;0.098;2023-04-15T11:07:32;13.60;72.40
63094;DHT22;49183;51.380;0.098;2023-04-15T11:10:01;13.80;72.20
63094;DHT22;49183;51.380;0.098;2023-04-15T11:12:34;13.80;72.00
63094;DHT22;49183;51.380;0.098;2023-04-15T11:17:51;13.90;71.90
63094;DHT22;49183;51.380;0.098;2023-04-15T11:20:20;13.80;71.10
63094;DHT22;49183;51.380;0.098;2023-04-15T11:22:50;13.60;71.50
63094;DHT22;49183;51.380;0.098;2023-04-15T11:25:23;13.60;71.90
63094;DHT22;49183;51.380;0.098;2023-04-15T11:27:52;13.40;71.90
63094;DHT22;49183;51.380;0.098;2023-04-15T11:30:27;13.30;71.70
63094;DHT22;49183;51.380;0.098;2023-04-15T11:33:05;13.20;72.10
63094;DHT22;49183;51.380;0.098;2023-04-15T11:35:36;13.20;72.20
63094;DHT22;49183;51.380;0.098;2023-04-15T11:38:07;13.10;72.20
63094;DHT22;49183;51.380;0.098;2023-04-15T11:40:36;13.20;72.30
63094;DHT22;49183;51.380;0.098;2023-04-15T11:43:06;13.10;72.10
63094;DHT22;49183;51.380;0.098;2023-04-15T11:45:35;13.20;71.90
63094;DHT22;49183;51.380;0.098;2023-04-15T11:48:08;13.30;71.80
63094;DHT22;49183;51.380;0.098;2023-04-15T11:50:38;13.30;71.50
63094;DHT22;49183;51.380;0.098;2023-04-15T11:53:09;13.50;71.10
63094;DHT22;49183;51.380;0.098;2023-04-15T11:58:56;13.80;70.30
63094;DHT22;49183;51.380;0.098;2023-04-15T12:01:34;13.90;69.40
63094;DHT22;49183;51.380;0.098;2023-04-15T12:04:09;14.00;69.10
63094;DHT22;49183;51.380;0.098;2023-04-15T12:26:43;14.90;67.60
63094;DHT22;49183;51.380;0.098;2023-04-15T12:32:45;14.90;66.30
63094;DHT22;49183;51.380;0.098;2023-04-15T12:35:15;14.90;66.30
63094;DHT22;49183;51.380;0.098;2023-04-15T12:37:42;14.70;65.00
63094;DHT22;49183;51.380;0.098;2023-04-15T12:40:10;14.40;64.30
63094;DHT22;49183;51.380;0.098;2023-04-15T12:42:38;14.30;65.50
63094;DHT22;49183;51.380;0.098;2023-04-15T12:45:06;14.40;66.00
63094;DHT22;49183;51.380;0.098;2023-04-15T12:47:35;14.40;65.60
63094;DHT22;49183;51.380;0.098;2023-04-15T12:50:03;14.50;66.00
63094;DHT22;49183;51.380;0.098;2023-04-15T12:52:31;14.60;66.00
63094;DHT22;49183;51.380;0.098;2023-04-15T12:54:58;14.80;65.70
63094;DHT22;49183;51.380;0.098;2023-04-15T12:57:32;14.90;65.30
63094;DHT22;49183;51.380;0.098;2023-04-15T12:59:59;15.00;64.90
63094;DHT22;49183;51.380;0.098;2023-04-15T13:02:27;15.10;64.90
63094;DHT22;49183;51.380;0.098;2023-04-15T13:04:56;15.20;64.90
63094;DHT22;49183;51.380;0.098;2023-04-15T13:07:24;15.30;64.00
63094;DHT22;49183;51.380;0.098;2023-04-15T13:09:51;15.20;63.20
63094;DHT22;49183;51.380;0.098;2023-04-15T13:12:22;15.10;61.80
63094;DHT22;49183;51.380;0.098;2023-04-15T13:14:49;14.80;61.70
63094;DHT22;49183;51.380;0.098;2023-04-15T13:17:17;14.60;62.70
63094;DHT22;49183;51.380;0.098;2023-04-15T13:19:46;14.50;63.20
63094;DHT22;49183;51.380;0.098;2023-04-15T13:22:14;14.60;63.40
63094;DHT22;49183;51.380;0.098;2023-04-15T13:24:42;14.60;63.40
63094;DHT22;49183;51.380;0.098;2023-04-15T13:27:10;14.60;63.10
63094;DHT22;49183;51.380;0.098;2023-04-15T13:29:38;14.70;63.30
63094;DHT22;49183;51.380;0.098;2023-04-15T13:32:06;14.70;63.10
63094;DHT22;49183;51.380;0.098;2023-04-15T13:34:34;14.60;63.20
63094;DHT22;49183;51.380;0.098;2023-04-15T13:37:06;14.60;63.30
63094;DHT22;49183;51.380;0.098;2023-04-15T13:39:34;14.50;62.90
63094;DHT22;49183;51.380;0.098;2023-04-15T13:42:04;14.40;62.20
63094;DHT22;49183;51.380;0.098;2023-04-15T13:44:32;14.30;62.30
63094;DHT22;49183;51.380;0.098;2023-04-15T13:47:00;14.30;62.50
63094;DHT22;49183;51.380;0.098;2023-04-15T13:49:28;14.30;62.70
63094;DHT22;49183;51.380;0.098;2023-04-15T13:51:56;14.40;62.90
63094;DHT22;49183;51.380;0.098;2023-04-15T13:54:23;14.40;62.90
63094;DHT22;49183;51.380;0.098;2023-04-15T13:57:05;14.40;62.90
63094;DHT22;49183;51.380;0.098;2023-04-15T13:59:33;14.50;62.90
63094;DHT22;49183;51.380;0.098;2023-04-15T14:02:03;14.60;63.00
63094;DHT22;49183;51.380;0.098;2023-04-15T14:04:31;14.60;62.90
63094;DHT22;49183;51.380;0.098;2023-04-15T14:07:00;14.60;62.90
63094;DHT22;49183;51.380;0.098;2023-04-15T14:09:30;14.50;62.70
63094;DHT22;49183;51.380;0.098;2023-04-15T14:12:01;14.60;62.90
63094;DHT22;49183;51.380;0.098;2023-04-15T14:14:29;14.50;62.60
63094;DHT22;49183;51.380;0.098;2023-04-15T14:16:57;14.40;62.60
63094;DHT22;49183;51.380;0.098;2023-04-15T14:19:25;14.30;62.20
63094;DHT22;49183;51.380;0.098;2023-04-15T14:21:53;14.30;62.40
63094;DHT22;49183;51.380;0.098;2023-04-15T14:24:21;14.20;62.40
63094;DHT22;49183;51.380;0.098;2023-04-15T14:26:49;14.20;62.30
63094;DHT22;49183;51.380;0.098;2023-04-15T14:29:17;14.20;62.40
63094;DHT22;49183;51.380;0.098;2023-04-15T14:31:44;14.10;62.50
63094;DHT22;49183;51.380;0.098;2023-04-15T14:34:32;14.10;62.70
63094;DHT22;49183;51.380;0.098;2023-04-15T14:37:00;14.00;62.90
63094;DHT22;49183;51.380;0.098;2023-04-15T14:39:28;14.00;62.70
63094;DHT22;49183;51.380;0.098;2023-04-15T14:41:56;14.00;62.90
63094;DHT22;49183;51.380;0.098;2023-04-15T14:44:24;13.90;62.90
63094;DHT22;49183;51.380;0.098;2023-04-15T14:46:52;13.80;63.10
63094;DHT22;49183;51.380;0.098;2023-04-15T14:49:22;13.80;63.30
63094;DHT22;49183;51.380;0.098;2023-04-15T14:51:52;13.90;63.40
63094;DHT22;49183;51.380;0.098;2023-04-15T14:54:22;13.90;63.40
63094;DHT22;49183;51.380;0.098;2023-04-15T14:56:50;14.00;63.50
63094;DHT22;49183;51.380;0.098;2023-04-15T14:59:18;14.10;63.40
63094;DHT22;49183;51.380;0.098;2023-04-15T15:01:46;14.20;63.40
63094;DHT22;49183;51.380;0.098;2023-04-15T15:04:14;14.30;63.10
63094;DHT22;49183;51.380;0.098;2023-04-15T15:06:41;14.40;63.10
63094;DHT22;49183;51.380;0.098;2023-04-15T15:09:09;14.40;63.10
63094;DHT22;49183;51.380;0.098;2023-04-15T15:11:44;14.50;62.70
63094;DHT22;49183;51.380;0.098;2023-04-15T15:14:11;14.60;62.70
63094;DHT22;49183;51.380;0.098;2023-04-15T15:16:39;14.70;62.60
63094;DHT22;49183;51.380;0.098;2023-04-15T15:19:07;14.80;62.40
63094;DHT22;49183;51.380;0.098;2023-04-15T15:21:35;14.80;62.20
63094;DHT22;49183;51.380;0.098;2023-04-15T15:24:15;14.80;62.50
63094;DHT22;49183;51.380;0.098;2023-04-15T15:26:43;15.00;62.50
63094;DHT22;49183;51.380;0.098;2023-04-15T15:29:14;15.10;62.90
63094;DHT22;49183;51.380;0.098;2023-04-15T15:31:41;15.20;62.70
63094;DHT22;49183;51.380;0.098;2023-04-15T15:34:09;15.30;62.50
63094;DHT22;49183;51.380;0.098;2023-04-15T15:36:37;15.40;62.10
63094;DHT22;49183;51.380;0.098;2023-04-15T15:39:06;15.50;62.00
63094;DHT22;49183;51.380;0.098;2023-04-15T15:41:34;15.60;61.80
63094;DHT22;49183;51.380;0.098;2023-04-15T15:44:02;15.70;61.40
63094;DHT22;49183;51.380;0.098;2023-04-15T15:46:30;15.70;60.90
63094;DHT22;49183;51.380;0.098;2023-04-15T15:48:58;15.80;61.00
63094;DHT22;49183;51.380;0.098;2023-04-15T15:51:26;15.80;60.50
63094;DHT22;49183;51.380;0.098;2023-04-15T15:53:54;15.90;59.50
63094;DHT22;49183;51.380;0.098;2023-04-15T15:56:22;16.00;59.60
63094;DHT22;49183;51.380;0.098;2023-04-15T15:58:50;16.20;59.20
63094;DHT22;49183;51.380;0.098;2023-04-15T16:01:17;16.30;59.00
63094;DHT22;49183;51.380;0.098;2023-04-15T16:03:45;16.40;58.60
63094;DHT22;49183;51.380;0.098;2023-04-15T16:06:13;16.50;58.10
63094;DHT22;49183;51.380;0.098;2023-04-15T16:08:40;16.50;57.70
63094;DHT22;49183;51.380;0.098;2023-04-15T16:11:08;16.60;57.90
63094;DHT22;49183;51.380;0.098;2023-04-15T16:13:36;16.70;57.10
63094;DHT22;49183;51.380;0.098;2023-04-15T16:16:03;16.60;57.00
63094;DHT22;49183;51.380;0.098;2023-04-15T16:18:31;16.70;56.80
63094;DHT22;49183;51.380;0.098;2023-04-15T16:21:01;16.70;56.70
63094;DHT22;49183;51.380;0.098;2023-04-15T16:23:29;16.80;56.80
63094;DHT22;49183;51.380;0.098;2023-04-15T16:25:57;16.80;56.60
63094;DHT22;49183;51.380;0.098;2023-04-15T16:28:25;16.80;56.30
63094;DHT22;49183;51.380;0.098;2023-04-15T16:30:54;16.80;55.90
63094;DHT22;49183;51.380;0.098;2023-04-15T16:33:22;16.80;56.10
63094;DHT22;49183;51.380;0.098;2023-04-15T16:35:50;16.80;55.70
63094;DHT22;49183;51.380;0.098;2023-04-15T16:38:18;16.80;55.40
63094;DHT22;49183;51.380;0.098;2023-04-15T16:40:46;16.80;55.40
63094;DHT22;49183;51.380;0.098;2023-04-15T16:43:13;16.80;55.40
63094;DHT22;49183;51.380;0.098;2023-04-15T16:45:41;16.80;55.30
63094;DHT22;49183;51.380;0.098;2023-04-15T16:48:10;16.80;55.00
63094;DHT22;49183;51.380;0.098;2023-04-15T16:50:38;16.80;54.80
63094;DHT22;49183;51.380;0.098;2023-04-15T16:53:07;16.90;54.60
63094;DHT22;49183;51.380;0.098;2023-04-15T16:55:34;16.90;54.80
63094;DHT22;49183;51.380;0.098;2023-04-15T16:58:02;17.00;54.60
63094;DHT22;49183;51.380;0.098;2023-04-15T17:00:32;17.00;54.20
63094;DHT22;49183;51.380;0.098;2023-04-15T17:03:03;16.90;54.00
63094;DHT22;49183;51.380;0.098;2023-04-15T17:05:35;17.00;53.90
63094;DHT22;49183;51.380;0.098;2023-04-15T17:08:03;17.10;54.00
63094;DHT22;49183;51.380;0.098;2023-04-15T17:10:34;17.10;53.70
63094;DHT22;49183;51.380;0.098;2023-04-15T17:13:02;17.20;53.70
63094;DHT22;49183;51.380;0.098;2023-04-15T17:15:30;17.30;53.80
63094;DHT22;49183;51.380;0.098;2023-04-15T17:18:14;17.40;53.50
63094;DHT22;49183;51.380;0.098;2023-04-15T17:20:45;17.40;53.40
63094;DHT22;49183;51.380;0.098;2023-04-15T17:23:12;17.40;53.40
63094;DHT22;49183;51.380;0.098;2023-04-15T17:25:40;17.40;53.40
63094;DHT22;49183;51.380;0.098;2023-04-15T17:28:08;17.50;53.10
63094;DHT22;49183;51.380;0.098;2023-04-15T17:30:36;17.30;53.00
63094;DHT22;49183;51.380;0.098;2023-04-15T17:33:25;17.20;53.10
63094;DHT22;49183;51.380;0.098;2023-04-15T17:36:33;16.80;53.20
63094;DHT22;49183;51.380;0.098;2023-04-15T17:39:20;16.50;54.00
63094;DHT22;49183;51.380;0.098;2023-04-15T17:42:14;16.10;54.60
63094;DHT22;49183;51.380;0.098;2023-04-15T17:45:02;15.70;55.50
63094;DHT22;49183;51.380;0.098;2023-04-15T17:47:50;15.30;56.30
63094;DHT22;49183;51.380;0.098;2023-04-15T17:50:37;15.00;56.70
63094;DHT22;49183;51.380;0.098;2023-04-15T17:53:26;14.60;57.30
63094;DHT22;49183;51.380;0.098;2023-04-15T17:56:14;14.20;57.90
63094;DHT22;49183;51.380;0.098;2023-04-15T17:59:03;13.80;58.60
63094;DHT22;49183;51.380;0.098;2023-04-15T18:01:51;13.60;59.30
63094;DHT22;49183;51.380;0.098;2023-04-15T18:04:39;13.30;59.90
63094;DHT22;49183;51.380;0.098;2023-04-15T18:07:33;13.10;60.40
63094;DHT22;49183;51.380;0.098;2023-04-15T18:10:21;12.90;60.90
63094;DHT22;49183;51.380;0.098;2023-04-15T18:13:10;12.80;61.20
